Time;durP1;ratioP1;P1;durP2;ratioP2;P2;SDS_P1;SDS_P2;PMS_P1;PMS_P2;Temp;Humidity;BMP_temperature;BMP_pressure;BME280_temperature;BME280_humidity;BME280_pressure;Samples;Min_cycle;Max_cycle;Signal;HPM_P1;HPM_P2
2022/07/04 00:00:23;;;;;;;3.13;2.83;;;21.00;99.90;;;;;;5077825;28;20247;-75
2022/07/04 00:02:52;;;;;;;6.40;2.55;;;21.00;99.90;;;;;;5078013;28;20285;-81
2022/07/04 00:05:19;;;;;;;2.55;2.35;;;21.00;99.90;;;;;;5084655;28;20279;-82
2022/07/04 00:07:48;;;;;;;4.20;2.70;;;20.90;99.90;;;;;;5086996;28;20202;-80
2022/07/04 00:10:21;;;;;;;2.88;2.22;;;20.90;99.90;;;;;;5074126;28;20214;-80
2022/07/04 00:12:48;;;;;;;2.33;2.08;;;20.80;99.90;;;;;;5075714;28;20567;-78
2022/07/04 00:15:15;;;;;;;5.40;2.30;;;20.70;99.90;;;;;;5072992;28;20331;-82
2022/07/04 00:17:42;;;;;;;2.80;2.60;;;20.70;99.90;;;;;;5078188;28;20259;-84
2022/07/04 00:20:11;;;;;;;4.30;2.63;;;20.70;99.90;;;;;;5071504;28;20207;-82
2022/07/04 00:22:39;;;;;;;1.90;1.75;;;20.60;99.90;;;;;;5071885;28;20206;-86
2022/07/04 00:25:06;;;;;;;3.92;2.63;;;20.70;99.90;;;;;;5079328;28;20290;-83
2022/07/04 00:27:35;;;;;;;3.75;2.63;;;20.60;99.90;;;;;;5077116;28;20245;-77
2022/07/04 00:30:02;;;;;;;2.78;2.13;;;20.50;99.90;;;;;;5071014;28;20259;-82
2022/07/04 00:32:29;;;;;;;2.83;2.00;;;20.50;99.90;;;;;;5080872;28;20205;-83
2022/07/04 00:34:56;;;;;;;3.55;2.00;;;20.50;99.90;;;;;;5090736;28;20201;-83
2022/07/04 00:37:23;;;;;;;1.58;1.48;;;20.40;99.90;;;;;;5092230;28;20209;-85
2022/07/04 00:39:50;;;;;;;2.90;1.85;;;20.40;99.90;;;;;;5091757;28;20205;-87
2022/07/04 00:42:17;;;;;;;5.82;1.95;;;20.40;99.90;;;;;;5080327;28;20202;-83
2022/07/04 00:44:45;;;;;;;3.72;2.15;;;20.30;99.90;;;;;;5078591;28;20270;-70
2022/07/04 00:47:12;;;;;;;2.10;1.90;;;20.30;99.90;;;;;;5081098;28;20678;-88
2022/07/04 00:49:40;;;;;;;1.58;1.48;;;20.30;99.90;;;;;;5084078;28;20205;-88
2022/07/04 00:52:08;;;;;;;2.55;1.50;;;20.30;99.90;;;;;;5080329;28;20600;-88
2022/07/04 00:54:36;;;;;;;3.88;2.17;;;20.10;99.90;;;;;;5076574;28;20268;-87
2022/07/04 00:57:03;;;;;;;3.00;2.03;;;20.00;99.90;;;;;;5081548;28;20271;-88
2022/07/04 00:59:30;;;;;;;4.95;1.90;;;20.10;99.90;;;;;;5080912;28;20262;-84
2022/07/04 01:01:59;;;;;;;3.72;2.00;;;20.00;99.90;;;;;;5084562;28;20749;-83
2022/07/04 01:04:26;;;;;;;2.50;1.52;;;19.80;99.90;;;;;;5080470;28;20229;-83
2022/07/04 01:06:53;;;;;;;2.08;1.88;;;19.60;99.90;;;;;;5073909;28;20202;-86
2022/07/04 01:09:20;;;;;;;3.28;1.38;;;19.60;99.90;;;;;;5083624;28;20198;-89
2022/07/04 01:11:51;;;;;;;3.03;2.00;;;19.60;99.90;;;;;;5082531;28;20245;-81
2022/07/04 01:14:18;;;;;;;2.35;1.73;;;19.60;99.90;;;;;;5087997;28;20212;-85
2022/07/04 01:16:45;;;;;;;3.95;2.15;;;19.60;99.90;;;;;;5071404;28;20228;-85
2022/07/04 01:19:13;;;;;;;3.25;1.55;;;19.60;99.90;;;;;;5071939;28;20210;-86
2022/07/04 01:21:42;;;;;;;2.75;1.55;;;19.50;99.90;;;;;;5071872;28;20198;-77
2022/07/04 01:24:13;;;;;;;1.77;1.33;;;19.50;99.90;;;;;;5070493;28;20275;-82
2022/07/04 01:26:40;;;;;;;3.80;1.83;;;19.30;99.90;;;;;;5076174;28;20201;-82
2022/07/04 01:29:07;;;;;;;5.45;2.10;;;19.20;99.90;;;;;;5077773;28;20276;-75
2022/07/04 01:31:34;;;;;;;5.10;1.60;;;19.20;99.90;;;;;;5071410;28;20218;-76
2022/07/04 01:34:01;;;;;;;2.85;1.98;;;19.00;99.90;;;;;;5090324;28;20266;-75
2022/07/04 01:36:28;;;;;;;5.70;2.58;;;19.00;99.90;;;;;;5091106;28;20664;-75
2022/07/04 01:38:58;;;;;;;2.92;1.63;;;19.00;99.90;;;;;;5090471;28;20676;-82
2022/07/04 01:41:25;;;;;;;1.52;1.42;;;19.10;99.90;;;;;;5090952;28;20283;-81
2022/07/04 01:43:52;;;;;;;1.65;1.50;;;19.20;99.90;;;;;;5090625;28;20308;-76
2022/07/04 01:46:19;;;;;;;1.27;1.20;;;19.20;99.90;;;;;;5094259;28;20205;-79
2022/07/04 01:48:46;;;;;;;4.55;1.80;;;19.20;99.90;;;;;;5090885;28;20206;-85
2022/07/04 01:51:13;;;;;;;4.07;1.70;;;19.00;99.90;;;;;;5085596;28;20202;-78
2022/07/04 01:53:40;;;;;;;2.25;1.60;;;18.90;99.90;;;;;;5083836;28;20622;-80
2022/07/04 01:56:09;;;;;;;2.22;1.20;;;18.90;99.90;;;;;;5079178;28;20588;-82
2022/07/04 01:58:36;;;;;;;3.85;1.60;;;19.00;99.90;;;;;;5088746;28;20633;-84
2022/07/04 02:03:47;;;;;;;2.30;1.67;;;19.00;99.90;;;;;;5073677;28;20216;-69
2022/07/04 02:06:14;;;;;;;3.60;1.55;;;18.90;99.90;;;;;;5075424;28;20207;-86
2022/07/04 02:11:27;;;;;;;3.35;2.03;;;18.70;99.90;;;;;;5074146;28;20221;-82
2022/07/04 02:13:53;;;;;;;2.33;1.95;;;18.60;99.90;;;;;;5082793;28;20245;-81
2022/07/04 02:16:20;;;;;;;3.38;1.60;;;18.50;99.90;;;;;;5073878;28;20245;-75
2022/07/04 02:18:47;;;;;;;2.67;1.73;;;18.60;99.90;;;;;;5073599;28;20205;-69
2022/07/04 02:21:14;;;;;;;2.88;1.70;;;18.60;99.90;;;;;;5073738;28;20621;-79
2022/07/04 02:23:41;;;;;;;1.50;1.40;;;18.60;99.90;;;;;;5073978;28;20624;-82
2022/07/04 02:26:08;;;;;;;3.17;1.35;;;18.60;99.90;;;;;;5073264;28;20210;-83
2022/07/04 02:28:36;;;;;;;3.00;1.92;;;18.50;99.90;;;;;;5088496;28;20263;-80
2022/07/04 02:31:03;;;;;;;3.83;2.03;;;18.60;99.90;;;;;;5078237;28;20210;-80
2022/07/04 02:33:30;;;;;;;2.20;1.83;;;18.70;99.90;;;;;;5074894;28;20210;-84
2022/07/04 02:35:57;;;;;;;3.38;1.80;;;18.70;99.90;;;;;;5073809;28;20228;-86
2022/07/04 02:38:24;;;;;;;6.20;2.05;;;18.70;99.90;;;;;;5090105;28;20206;-86
2022/07/04 02:40:51;;;;;;;1.63;1.50;;;18.80;99.90;;;;;;5074591;28;20238;-84
2022/07/04 02:43:18;;;;;;;4.72;2.03;;;18.80;99.90;;;;;;5089393;28;20209;-82
2022/07/04 02:45:46;;;;;;;2.17;1.73;;;18.70;99.90;;;;;;5079448;28;20588;-80
2022/07/04 02:48:13;;;;;;;3.55;2.13;;;18.70;99.90;;;;;;5094060;28;20206;-83
2022/07/04 02:50:40;;;;;;;2.30;1.90;;;18.80;99.90;;;;;;5094723;28;20205;-85
2022/07/04 02:53:07;;;;;;;4.40;1.83;;;18.70;99.90;;;;;;5093181;28;20632;-86
2022/07/04 02:55:34;;;;;;;3.28;1.80;;;18.70;99.90;;;;;;5094337;28;20263;-87
2022/07/04 02:58:01;;;;;;;2.45;1.73;;;18.70;99.90;;;;;;5078228;28;20202;-81
2022/07/04 03:00:28;;;;;;;5.20;2.38;;;18.50;99.90;;;;;;5093703;28;20266;-81
2022/07/04 03:02:56;;;;;;;3.67;2.78;;;18.40;99.90;;;;;;5093557;28;20254;-78
2022/07/04 03:05:23;;;;;;;6.38;2.53;;;18.30;99.90;;;;;;5092977;28;20361;-74
2022/07/04 03:07:50;;;;;;;2.67;2.47;;;18.30;99.90;;;;;;5092438;28;20692;-77
2022/07/04 03:10:17;;;;;;;3.60;2.20;;;18.30;99.90;;;;;;5088438;28;20678;-81
2022/07/04 03:12:44;;;;;;;2.97;2.17;;;18.40;99.90;;;;;;5090948;28;20421;-74
2022/07/04 03:15:11;;;;;;;2.70;1.88;;;18.40;99.90;;;;;;5079628;28;20334;-85
2022/07/04 03:17:38;;;;;;;3.60;2.55;;;18.40;99.90;;;;;;5093311;28;20201;-81
2022/07/04 03:20:08;;;;;;;2.70;2.45;;;18.20;99.90;;;;;;5092739;28;20221;-79
2022/07/04 03:22:35;;;;;;;5.90;3.05;;;18.30;99.90;;;;;;5092772;28;20255;-81
2022/07/04 03:25:02;;;;;;;9.75;3.75;;;18.20;99.90;;;;;;5092454;28;20334;-82
2022/07/04 03:27:29;;;;;;;5.47;2.03;;;18.20;99.90;;;;;;5092618;28;20335;-81
2022/07/04 03:29:56;;;;;;;6.47;2.28;;;18.20;99.90;;;;;;5092855;28;20209;-81
2022/07/04 03:32:23;;;;;;;2.70;2.40;;;18.10;99.90;;;;;;5092787;28;20209;-78
2022/07/04 03:34:50;;;;;;;3.17;2.88;;;18.10;99.90;;;;;;5092588;28;20632;-80
2022/07/04 03:37:18;;;;;;;2.70;2.45;;;18.00;99.90;;;;;;5091935;28;20263;-78
2022/07/04 03:39:45;;;;;;;9.23;3.83;;;18.20;99.90;;;;;;5092584;28;20233;-77
2022/07/04 03:42:12;;;;;;;2.90;2.70;;;18.20;99.90;;;;;;5093517;28;20216;-82
2022/07/04 03:44:39;;;;;;;3.25;2.25;;;18.20;99.90;;;;;;5093066;28;20229;-84
2022/07/04 03:47:06;;;;;;;3.38;2.65;;;18.20;99.90;;;;;;5092965;28;20213;-86
2022/07/04 03:49:33;;;;;;;3.65;3.10;;;18.30;99.90;;;;;;5078752;28;20202;-84
2022/07/04 03:52:00;;;;;;;3.22;2.47;;;18.20;99.90;;;;;;5092376;28;20247;-86
2022/07/04 03:54:29;;;;;;;3.70;2.92;;;18.10;99.90;;;;;;5092817;28;20267;-85
2022/07/04 03:56:56;;;;;;;3.75;2.53;;;18.10;99.90;;;;;;5092843;28;20233;-86
2022/07/04 03:59:22;;;;;;;4.30;3.55;;;18.10;99.90;;;;;;5083523;28;20205;-80
2022/07/04 04:01:49;;;;;;;3.17;2.85;;;18.20;99.90;;;;;;5081874;28;20738;-82
2022/07/04 04:07:01;;;;;;;4.35;2.47;;;18.20;99.90;;;;;;5072901;28;20264;-81
2022/07/04 04:09:29;;;;;;;5.20;3.13;;;18.20;99.90;;;;;;5073417;28;20206;-82
2022/07/04 04:11:56;;;;;;;5.20;3.38;;;18.20;99.90;;;;;;5073000;28;20634;-83
2022/07/04 04:14:24;;;;;;;3.13;2.88;;;18.30;99.90;;;;;;5074111;28;20632;-79
2022/07/04 04:16:51;;;;;;;3.47;2.80;;;18.40;99.90;;;;;;5074715;28;20256;-84
2022/07/04 04:19:18;;;;;;;4.25;3.00;;;18.50;99.90;;;;;;5071929;28;20259;-83
2022/07/04 04:21:45;;;;;;;3.70;3.40;;;18.60;99.90;;;;;;5071505;28;20248;-83
2022/07/04 04:24:12;;;;;;;3.50;2.80;;;18.50;99.90;;;;;;5071887;28;20573;-79
2022/07/04 04:26:40;;;;;;;6.78;3.22;;;18.50;99.90;;;;;;5071665;28;20238;-85
2022/07/04 04:29:07;;;;;;;9.73;3.50;;;18.50;99.90;;;;;;5071317;28;20242;-83
2022/07/04 04:31:34;;;;;;;5.65;3.78;;;18.40;99.90;;;;;;5071545;28;20279;-81
2022/07/04 04:34:01;;;;;;;8.75;3.63;;;18.40;99.90;;;;;;5071059;28;20206;-86
2022/07/04 04:36:28;;;;;;;4.20;3.30;;;18.40;99.90;;;;;;5071998;28;20206;-85
2022/07/04 04:38:55;;;;;;;4.57;3.38;;;18.40;99.90;;;;;;5071287;28;20264;-85
2022/07/04 04:41:22;;;;;;;3.00;2.67;;;18.40;99.90;;;;;;5072125;28;20202;-81
2022/07/04 04:43:51;;;;;;;4.60;3.10;;;18.30;99.90;;;;;;5070590;28;20206;-80
2022/07/04 04:46:18;;;;;;;3.47;3.03;;;18.10;99.90;;;;;;5071077;28;20230;-81
2022/07/04 04:48:45;;;;;;;4.82;3.17;;;18.30;99.90;;;;;;5070876;28;20209;-80
2022/07/04 04:51:12;;;;;;;5.50;3.53;;;18.50;99.90;;;;;;5085002;28;20218;-80
2022/07/04 04:53:39;;;;;;;5.38;2.80;;;18.40;99.90;;;;;;5082630;28;20202;-79
2022/07/04 04:56:05;;;;;;;5.95;4.28;;;18.20;99.90;;;;;;5080525;28;20262;-78
2022/07/04 04:58:32;;;;;;;9.05;4.13;;;18.10;99.90;;;;;;5076064;28;20202;-77
2022/07/04 05:01:02;;;;;;;5.22;3.25;;;18.10;99.90;;;;;;5070257;28;20248;-81
2022/07/04 05:03:29;;;;;;;4.55;3.15;;;18.10;99.90;;;;;;5070559;28;20202;-81
2022/07/04 05:05:56;;;;;;;3.83;3.20;;;18.30;99.90;;;;;;5070024;28;20234;-77
2022/07/04 05:08:24;;;;;;;5.47;3.17;;;18.30;99.90;;;;;;5070865;28;20255;-78
2022/07/04 05:10:51;;;;;;;4.43;3.42;;;18.50;99.90;;;;;;5070154;28;20210;-79
2022/07/04 05:13:18;;;;;;;7.50;3.15;;;18.50;99.90;;;;;;5070450;28;20749;-81
2022/07/04 05:15:46;;;;;;;6.03;3.03;;;18.60;99.90;;;;;;5070537;28;20307;-80
2022/07/04 05:18:15;;;;;;;3.67;3.20;;;18.40;99.90;;;;;;5070698;28;20216;-81
2022/07/04 05:20:42;;;;;;;12.13;3.17;;;18.50;99.90;;;;;;5070712;28;20198;-80
2022/07/04 05:23:09;;;;;;;3.00;2.65;;;18.50;99.90;;;;;;5076193;28;20210;-84
2022/07/04 05:25:36;;;;;;;7.07;4.60;;;18.60;99.90;;;;;;5076406;28;20306;-84
2022/07/04 05:28:03;;;;;;;3.38;3.17;;;18.70;99.90;;;;;;5073627;28;20256;-84
2022/07/04 05:30:30;;;;;;;4.95;2.30;;;18.70;99.90;;;;;;5071218;28;20206;-85
2022/07/04 05:32:58;;;;;;;3.20;2.72;;;18.80;99.90;;;;;;5069639;28;20206;-78
2022/07/04 05:35:27;;;;;;;3.58;3.28;;;18.90;99.90;;;;;;5070558;28;20227;-80
2022/07/04 05:37:54;;;;;;;4.60;2.75;;;18.90;99.90;;;;;;5070073;28;20688;-73
2022/07/04 05:40:22;;;;;;;4.38;2.72;;;19.00;99.90;;;;;;5069174;28;20206;-76
2022/07/04 05:42:49;;;;;;;4.03;3.33;;;19.00;99.90;;;;;;5075429;28;20202;-77
2022/07/04 05:45:16;;;;;;;9.57;4.10;;;19.00;99.90;;;;;;5081121;28;20811;-76
2022/07/04 05:47:43;;;;;;;3.28;2.65;;;19.00;99.90;;;;;;5077360;28;20203;-77
2022/07/04 05:50:10;;;;;;;5.25;3.33;;;19.10;99.90;;;;;;5077935;28;20737;-77
2022/07/04 05:52:39;;;;;;;4.72;2.38;;;19.40;99.90;;;;;;5076242;28;20264;-76
2022/07/04 05:55:07;;;;;;;4.78;3.13;;;19.40;99.90;;;;;;5069821;28;20257;-77
2022/07/04 05:57:34;;;;;;;3.80;2.65;;;19.50;99.90;;;;;;5070428;28;20518;-77
2022/07/04 06:00:01;;;;;;;5.85;2.60;;;19.40;99.90;;;;;;5069403;28;20661;-77
2022/07/04 06:02:28;;;;;;;6.85;3.53;;;19.30;99.90;;;;;;5070083;28;20681;-77
2022/07/04 06:04:58;;;;;;;6.00;2.58;;;19.50;99.90;;;;;;5069466;28;20249;-79
2022/07/04 06:07:25;;;;;;;5.03;2.88;;;19.40;99.90;;;;;;5070742;28;20206;-79
2022/07/04 06:09:53;;;;;;;7.38;2.92;;;19.50;99.90;;;;;;5069848;28;20205;-80
2022/07/04 06:12:20;;;;;;;6.30;3.00;;;19.40;99.90;;;;;;5073185;28;20214;-86
2022/07/04 06:14:47;;;;;;;3.53;3.22;;;19.60;99.90;;;;;;5069657;28;20735;-72
2022/07/04 06:17:14;;;;;;;3.05;2.58;;;19.70;99.90;;;;;;5070912;28;20206;-73
2022/07/04 06:19:41;;;;;;;6.93;2.45;;;19.70;99.90;;;;;;5070492;28;20207;-80
2022/07/04 06:22:08;;;;;;;5.38;2.60;;;19.80;99.90;;;;;;5077008;28;20290;-81
2022/07/04 06:24:35;;;;;;;4.57;3.35;;;20.00;99.90;;;;;;5079061;28;20263;-77
2022/07/04 06:27:04;;;;;;;8.35;3.40;;;20.10;99.90;;;;;;5073662;28;20230;-81
2022/07/04 06:29:31;;;;;;;11.40;4.53;;;20.20;99.90;;;;;;5069676;28;20241;-71
2022/07/04 06:31:58;;;;;;;7.72;3.22;;;20.10;99.90;;;;;;5072527;28;20224;-76
2022/07/04 06:37:09;;;;;;;9.38;3.83;;;20.60;99.90;;;;;;5075988;28;20221;-75
2022/07/04 06:39:36;;;;;;;7.43;2.80;;;20.60;99.90;;;;;;5075986;28;20628;-79
2022/07/04 06:42:05;;;;;;;4.63;2.63;;;20.50;99.90;;;;;;5076311;28;20202;-77
2022/07/04 06:44:32;;;;;;;4.40;2.53;;;20.70;99.90;;;;;;5077571;28;20233;-77
2022/07/04 06:46:59;;;;;;;4.35;3.05;;;20.80;99.90;;;;;;5082072;28;20286;-74
2022/07/04 06:49:26;;;;;;;22.83;6.88;;;20.90;99.90;;;;;;5088472;28;20673;-74
2022/07/04 06:51:53;;;;;;;4.20;2.40;;;21.00;99.90;;;;;;5093522;28;20202;-76
2022/07/04 06:54:20;;;;;;;5.97;2.47;;;21.30;99.90;;;;;;5080424;28;20214;-81
2022/07/04 06:56:47;;;;;;;5.68;3.55;;;21.30;99.90;;;;;;5074365;28;20406;-68
2022/07/04 06:59:15;;;;;;;4.30;2.83;;;21.00;99.90;;;;;;5072893;28;20210;-76
2022/07/04 07:01:42;;;;;;;3.47;3.00;;;20.90;99.90;;;;;;5086407;28;20211;-76
2022/07/04 07:04:10;;;;;;;4.82;2.17;;;20.70;99.90;;;;;;5075298;28;20579;-77
2022/07/04 07:06:37;;;;;;;2.10;1.90;;;20.80;99.90;;;;;;5077906;28;20280;-74
2022/07/04 07:09:04;;;;;;;2.33;2.13;;;21.10;99.90;;;;;;5075502;28;20694;-74
2022/07/04 07:11:31;;;;;;;6.75;2.40;;;21.00;99.90;;;;;;5079738;28;20210;-74
2022/07/04 07:13:58;;;;;;;3.95;2.13;;;20.60;99.90;;;;;;5076281;28;20202;-74
2022/07/04 07:16:27;;;;;;;3.85;2.80;;;20.40;99.90;;;;;;5081643;28;20655;-75
2022/07/04 07:18:54;;;;;;;5.90;2.75;;;20.50;99.90;;;;;;5077392;28;20271;-80
2022/07/04 07:21:21;;;;;;;3.90;3.17;;;20.50;99.90;;;;;;5073146;28;20213;-84
2022/07/04 07:23:47;;;;;;;4.97;3.30;;;20.90;99.90;;;;;;5072819;28;20661;-78
2022/07/04 07:26:14;;;;;;;3.85;2.08;;;21.60;99.90;;;;;;5075636;28;20275;-73
2022/07/04 07:28:42;;;;;;;5.30;2.70;;;21.90;99.90;;;;;;5073139;28;20263;-85
2022/07/04 07:31:09;;;;;;;3.42;2.28;;;22.30;99.90;;;;;;5072539;28;20202;-84
2022/07/04 07:33:37;;;;;;;3.08;2.17;;;22.10;99.90;;;;;;5073141;28;20202;-85
2022/07/04 07:36:04;;;;;;;2.92;2.63;;;22.10;99.90;;;;;;5079217;28;20593;-75
2022/07/04 07:38:31;;;;;;;12.18;2.92;;;22.20;99.90;;;;;;5072984;28;20211;-82
2022/07/04 07:40:58;;;;;;;4.88;2.42;;;22.00;99.90;;;;;;5072420;28;20277;-84
2022/07/04 07:43:26;;;;;;;6.63;3.08;;;21.80;99.90;;;;;;5072540;28;20210;-83
2022/07/04 07:45:53;;;;;;;6.43;2.90;;;21.70;99.90;;;;;;5072174;28;20721;-82
2022/07/04 07:48:20;;;;;;;5.82;3.58;;;21.90;99.90;;;;;;5073268;28;20210;-85
2022/07/04 07:50:49;;;;;;;5.65;2.75;;;21.80;99.90;;;;;;5085696;28;20215;-76
2022/07/04 07:53:16;;;;;;;4.55;2.45;;;21.90;99.90;;;;;;5093303;28;20251;-89
2022/07/04 07:55:43;;;;;;;3.00;2.38;;;21.70;99.90;;;;;;5093237;28;20224;-87
2022/07/04 07:58:10;;;;;;;21.40;6.18;;;21.80;99.90;;;;;;5093165;28;20210;-86
2022/07/04 08:00:37;;;;;;;13.43;4.82;;;22.00;99.90;;;;;;5093250;28;20210;-87
2022/07/04 08:05:50;;;;;;;3.88;2.45;;;22.40;99.90;;;;;;5081241;28;20616;-81
2022/07/04 08:08:17;;;;;;;5.75;2.60;;;23.00;99.90;;;;;;5073151;28;20742;-81
2022/07/04 08:10:44;;;;;;;3.10;2.22;;;23.50;99.90;;;;;;5072931;28;20267;-72
2022/07/04 08:13:11;;;;;;;4.07;3.35;;;23.40;99.90;;;;;;5073046;28;20217;-83
2022/07/04 08:15:38;;;;;;;7.03;3.25;;;23.10;99.90;;;;;;5071741;28;20210;-84
2022/07/04 08:18:05;;;;;;;6.47;3.58;;;23.10;99.90;;;;;;5071707;28;20234;-83
2022/07/04 08:20:32;;;;;;;8.52;4.15;;;23.20;99.90;;;;;;5073861;28;20214;-80
2022/07/04 08:23:00;;;;;;;9.02;5.70;;;23.10;99.90;;;;;;5072909;28;20202;-86
2022/07/04 08:25:27;;;;;;;4.13;3.47;;;23.20;99.90;;;;;;5071926;28;20308;-82
2022/07/04 08:27:54;;;;;;;5.25;4.30;;;23.50;99.90;;;;;;5071466;28;20307;-75
2022/07/04 08:30:21;;;;;;;5.70;4.55;;;23.70;99.90;;;;;;5071678;28;20232;-86
2022/07/04 08:32:48;;;;;;;4.15;3.40;;;23.60;99.90;;;;;;5072248;28;20271;-87
2022/07/04 08:35:15;;;;;;;6.40;4.28;;;23.10;99.90;;;;;;5075927;28;20678;-83
2022/07/04 08:37:42;;;;;;;6.70;4.35;;;22.80;99.90;;;;;;5077871;28;20674;-83
2022/07/04 08:40:12;;;;;;;7.30;4.38;;;22.70;99.90;;;;;;5072638;28;20216;-84
2022/07/04 08:42:40;;;;;;;5.80;4.43;;;22.60;99.90;;;;;;5077247;28;20205;-86
2022/07/04 08:45:08;;;;;;;5.82;5.07;;;22.30;99.90;;;;;;5087767;28;20263;-82
2022/07/04 08:47:38;;;;;;;11.68;5.25;;;23.40;99.90;;;;;;5075514;28;20234;-84
2022/07/04 08:50:12;;;;;;;38.33;9.75;;;23.80;99.90;;;;;;5077002;28;20232;-84
2022/07/04 08:52:41;;;;;;;56.55;15.23;;;24.30;99.90;;;;;;5075255;28;20211;-89
2022/07/04 09:00:42;;;;;;;17.30;5.05;;;24.90;99.90;;;;;;5071833;28;20205;-88
2022/07/04 09:03:10;;;;;;;5.45;4.80;;;25.40;99.90;;;;;;5075263;28;20206;-79
2022/07/04 09:05:37;;;;;;;4.93;3.60;;;25.50;99.90;;;;;;5079119;28;20681;-81
2022/07/04 09:08:05;;;;;;;6.72;4.78;;;25.60;99.90;;;;;;5075396;28;20618;-81
2022/07/04 09:10:33;;;;;;;16.20;6.20;;;25.20;99.90;;;;;;5077229;28;20206;-85
2022/07/04 09:13:03;;;;;;;10.43;4.55;;;24.90;99.90;;;;;;5070903;28;20225;-80
2022/07/04 09:15:31;;;;;;;10.65;3.95;;;25.50;99.90;;;;;;5071260;28;20214;-77
2022/07/04 09:18:00;;;;;;;7.60;4.53;;;25.20;99.90;;;;;;5085770;28;20680;-78
2022/07/04 09:20:29;;;;;;;6.68;4.68;;;25.30;99.90;;;;;;5074921;28;20202;-79
2022/07/04 09:22:56;;;;;;;6.22;4.40;;;24.80;99.90;;;;;;5085225;28;20228;-87
2022/07/04 09:25:24;;;;;;;4.78;3.88;;;24.40;99.90;;;;;;5083125;28;20198;-83
2022/07/04 09:27:54;;;;;;;4.30;3.90;;;23.60;99.90;;;;;;5085796;28;20268;-83
2022/07/04 09:30:23;;;;;;;4.60;3.92;;;25.70;99.90;;;;;;5084930;28;20202;-78
2022/07/04 09:32:52;;;;;;;5.47;4.45;;;29.30;99.90;;;;;;5086158;28;20201;-89
2022/07/04 09:35:21;;;;;;;6.05;3.90;;;27.70;99.90;;;;;;5078809;28;20201;-82
2022/07/04 09:37:50;;;;;;;3.83;2.92;;;28.30;99.90;;;;;;5081350;28;20209;-80
2022/07/04 09:40:25;;;;;;;4.43;2.78;;;29.10;99.90;;;;;;5084144;28;20214;-85
2022/07/04 09:42:55;;;;;;;7.38;3.88;;;27.60;99.90;;;;;;5086966;28;20201;-83
2022/07/04 09:45:24;;;;;;;4.75;3.85;;;27.00;99.90;;;;;;5083853;28;20206;-79
2022/07/04 09:47:53;;;;;;;5.72;3.95;;;27.10;99.90;;;;;;5078023;28;20236;-87
2022/07/04 09:50:22;;;;;;;4.35;3.95;;;28.40;99.90;;;;;;5090135;28;20286;-83
2022/07/04 09:52:52;;;;;;;3.63;2.92;;;29.90;99.90;;;;;;5081652;28;20590;-86
2022/07/04 09:55:28;;;;;;;3.35;3.05;;;30.80;99.90;;;;;;5084480;28;20214;-78
2022/07/04 09:57:58;;;;;;;4.28;3.70;;;33.20;99.90;;;;;;5075856;28;20212;-75
2022/07/04 10:00:28;;;;;;;5.35;3.35;;;34.30;99.90;;;;;;5081726;28;20205;-71
2022/07/04 10:02:56;;;;;;;4.78;3.67;;;30.50;99.90;;;;;;5081023;28;20238;-82
2022/07/04 10:05:26;;;;;;;3.63;3.22;;;31.40;99.90;;;;;;5083720;28;20201;-81
2022/07/04 10:07:55;;;;;;;6.68;4.20;;;31.30;99.90;;;;;;5091076;28;20228;-80
2022/07/04 10:10:32;;;;;;;4.80;2.88;;;31.50;99.90;;;;;;5078174;28;20198;-79
2022/07/04 10:13:02;;;;;;;3.80;3.40;;;29.00;99.90;;;;;;5077610;28;21145;-80
2022/07/04 10:15:29;;;;;;;3.63;2.97;;;26.80;99.90;;;;;;5085071;28;20661;-81
2022/07/04 10:17:56;;;;;;;4.88;3.03;;;30.20;99.90;;;;;;5085446;28;20201;-78
2022/07/04 10:20:23;;;;;;;5.72;3.40;;;30.30;99.90;;;;;;5077985;28;20205;-79
2022/07/04 10:22:51;;;;;;;3.72;3.35;;;32.60;99.90;;;;;;5084197;28;20262;-72
2022/07/04 10:25:18;;;;;;;6.30;3.80;;;35.20;99.90;;;;;;5084738;28;20221;-79
2022/07/04 10:27:48;;;;;;;2.70;2.50;;;31.70;99.90;;;;;;5081633;28;20229;-74
2022/07/04 10:33:05;;;;;;;3.65;2.40;;;35.80;99.90;;;;;;5032746;28;20203;-85
2022/07/04 10:35:53;;;;;;;4.05;2.65;;;36.40;99.90;;;;;;5041623;28;20234;-80
2022/07/04 10:38:21;;;;;;;4.07;2.70;;;36.70;99.90;;;;;;5038161;28;20213;-84
2022/07/04 10:40:50;;;;;;;3.03;2.40;;;35.60;99.90;;;;;;5084458;28;20209;-79
2022/07/04 10:44:05;;;;;;;3.38;2.30;;;31.50;99.90;;;;;;5077798;28;20205;-85
2022/07/04 10:46:47;;;;;;;4.50;3.55;;;28.80;99.90;;;;;;5076106;28;20208;-78
2022/07/04 10:49:25;;;;;;;3.40;2.92;;;27.30;99.90;;;;;;5087451;28;20575;-81
2022/07/04 10:51:54;;;;;;;2.42;2.22;;;27.00;99.90;;;;;;5089447;28;20288;-86
2022/07/04 10:54:29;;;;;;;2.40;2.20;;;26.40;99.90;;;;;;5081209;28;20241;-80
2022/07/04 10:56:57;;;;;;;3.28;2.63;;;26.60;99.90;;;;;;5084053;28;20741;-75
2022/07/04 10:59:26;;;;;;;3.78;3.13;;;27.00;99.90;;;;;;5081200;28;20625;-76
2022/07/04 11:02:25;;;;;;;2.58;2.38;;;27.20;99.90;;;;;;5077241;28;20206;-75
2022/07/04 11:04:58;;;;;;;2.40;2.20;;;27.80;99.90;;;;;;5078090;28;20211;-75
2022/07/04 11:07:59;;;;;;;2.75;2.20;;;27.70;99.90;;;;;;5083611;28;20221;-72
2022/07/04 11:10:27;;;;;;;2.90;2.35;;;28.00;99.90;;;;;;5089514;28;20212;-79
2022/07/04 11:13:19;;;;;;;7.25;2.28;;;27.70;99.90;;;;;;5086454;28;20695;-73
2022/07/04 11:16:04;;;;;;;3.90;2.38;;;27.20;99.90;;;;;;5091219;28;20201;-78
2022/07/04 11:18:41;;;;;;;3.90;2.42;;;27.70;99.90;;;;;;5088425;28;20206;-79
2022/07/04 11:21:25;;;;;;;5.43;2.28;;;27.70;99.90;;;;;;5085114;28;20248;-76
2022/07/04 11:23:53;;;;;;;3.67;2.38;;;27.70;99.90;;;;;;5081465;28;20205;-70
2022/07/04 11:26:22;;;;;;;12.90;4.10;;;27.50;99.90;;;;;;5090322;28;20262;-71
2022/07/04 11:28:49;;;;;;;27.17;8.55;;;27.60;99.90;;;;;;5089307;28;20237;-71
2022/07/04 11:31:16;;;;;;;2.90;2.47;;;27.50;99.90;;;;;;5076775;28;20205;-71
2022/07/04 11:33:45;;;;;;;3.15;2.85;;;27.70;99.90;;;;;;5081316;28;20202;-70
2022/07/04 11:36:16;;;;;;;3.47;2.38;;;27.60;99.90;;;;;;5077736;28;20206;-71
2022/07/04 11:38:53;;;;;;;5.32;3.20;;;27.50;99.90;;;;;;5077348;28;20658;-71
2022/07/04 11:46:51;;;;;;;2.70;2.35;;;27.30;99.90;;;;;;5076401;28;20634;-70
2022/07/04 11:49:20;;;;;;;5.90;3.70;;;27.80;99.90;;;;;;5077521;28;20669;-70
2022/07/04 11:51:49;;;;;;;19.17;10.15;;;28.00;99.90;;;;;;5090664;28;20205;-70
2022/07/04 11:54:18;;;;;;;13.18;3.72;;;27.90;99.90;;;;;;5085328;28;20259;-70
2022/07/04 11:56:45;;;;;;;13.68;4.53;;;28.20;99.90;;;;;;5089023;28;20198;-71
2022/07/04 11:59:14;;;;;;;5.22;3.33;;;28.20;99.90;;;;;;5089626;28;20213;-70
2022/07/04 12:01:42;;;;;;;2.35;2.15;;;28.00;99.90;;;;;;5091630;28;20251;-71
2022/07/04 12:04:17;;;;;;;2.95;2.40;;;27.30;99.90;;;;;;5089988;28;20275;-70
2022/07/04 12:06:48;;;;;;;5.25;2.90;;;27.10;99.90;;;;;;5091107;28;20204;-70
2022/07/04 12:09:17;;;;;;;5.93;2.50;;;26.90;99.90;;;;;;5078603;28;20255;-69
2022/07/04 12:11:58;;;;;;;3.25;2.60;;;26.90;99.90;;;;;;5090187;28;20256;-70
2022/07/04 12:14:26;;;;;;;3.72;2.40;;;27.00;99.90;;;;;;5082738;28;20646;-72
2022/07/04 12:17:11;;;;;;;5.03;3.13;;;27.10;99.90;;;;;;5090265;28;20236;-74
2022/07/04 12:19:38;;;;;;;2.58;2.35;;;27.50;99.90;;;;;;5090403;28;20726;-75
2022/07/04 12:22:07;;;;;;;4.55;2.35;;;27.40;99.90;;;;;;5090994;28;20621;-77
2022/07/04 12:24:43;;;;;;;2.42;2.00;;;27.30;99.90;;;;;;5089511;28;20254;-74
2022/07/04 12:27:18;;;;;;;5.45;2.47;;;27.80;99.90;;;;;;5075653;28;20261;-72
2022/07/04 12:29:49;;;;;;;4.63;2.53;;;27.50;99.90;;;;;;5084456;28;20282;-74
2022/07/04 12:32:16;;;;;;;3.13;2.42;;;27.30;99.90;;;;;;5084139;28;20206;-77
2022/07/04 12:34:43;;;;;;;4.47;3.00;;;27.60;99.90;;;;;;5090191;28;20637;-79
2022/07/04 12:37:13;;;;;;;4.03;2.72;;;27.70;99.90;;;;;;5083628;28;20259;-81
2022/07/04 12:39:43;;;;;;;71.35;18.67;;;27.90;99.90;;;;;;5085154;28;20202;-79
2022/07/04 12:42:12;;;;;;;15.98;4.82;;;27.60;99.90;;;;;;5090835;28;20205;-74
2022/07/04 12:44:41;;;;;;;4.30;3.05;;;27.20;99.90;;;;;;5090732;28;20267;-70
2022/07/04 12:47:09;;;;;;;5.60;2.92;;;27.30;99.90;;;;;;5083706;28;20213;-75
2022/07/04 12:49:36;;;;;;;5.53;3.40;;;27.90;99.90;;;;;;5082162;28;20206;-76
2022/07/04 12:52:09;;;;;;;4.78;2.60;;;28.40;99.90;;;;;;5083163;28;20278;-80
2022/07/04 12:54:38;;;;;;;3.80;3.42;;;28.10;99.90;;;;;;5080247;28;20198;-80
2022/07/04 12:57:10;;;;;;;6.63;3.15;;;27.90;99.90;;;;;;5088712;28;20224;-76
2022/07/04 12:59:38;;;;;;;3.47;2.78;;;28.30;99.90;;;;;;5085955;28;20629;-79
2022/07/04 13:02:06;;;;;;;4.35;2.63;;;28.40;99.90;;;;;;5079313;28;20673;-71
2022/07/04 13:04:33;;;;;;;2.95;2.75;;;27.60;99.90;;;;;;5091658;28;20221;-70
2022/07/04 13:07:12;;;;;;;3.30;3.00;;;27.30;99.90;;;;;;5090632;28;20608;-70
2022/07/04 13:09:41;;;;;;;6.10;3.17;;;27.20;99.90;;;;;;5091044;28;20215;-72
2022/07/04 13:14:59;;;;;;;3.80;2.55;;;26.90;99.90;;;;;;5074554;28;20212;-75
2022/07/04 13:17:27;;;;;;;3.00;2.00;;;26.90;99.90;;;;;;5090713;28;20681;-70
2022/07/04 13:19:55;;;;;;;2.90;2.58;;;27.20;99.90;;;;;;5090557;28;20738;-80
2022/07/04 13:22:23;;;;;;;3.53;2.88;;;27.30;99.90;;;;;;5090915;28;20259;-74